Kakushu Maru — JG5688 — position and weather

sailwx.info

Track history (hours):
 
Tides and Currents Weather Stations Pressure Air Temp Water Temp Dewpoint Dewpoint Depression Visibility Wind Speed Wind Dir Waves Ship Positions

Kakushu Maru

Last reported at 2015-Sep-01 07:24 UTC. Time now 2015-Sep-02 23:50 UTC.
Position N 35°44' E 140°58'.

Length 105 m; draft 6.4 m.

Type: Tanker. MMSI: 431101016.

Date/timePositionNaut miles runAvg speedWind from/ knotsBaromVisibWave heightAir tempDewpointWater temp
2015-Sep-01 07:24N 35°44' E 140°58'1413.2
2015-Sep-01 06:19N 35°31' E 140°50'1213.9
2015-Sep-01 05:26N 35°21' E 140°41'1213.9
2015-Sep-01 04:33N 35°12' E 140°32'1514.6
2015-Sep-01 03:32N 35°02' E 140°19'1313.4
2015-Sep-01 02:32N 34°55' E 140°04'1212.8
2015-Sep-01 01:33N 34°51' E 139°50'1212.0
2015-Sep-01 00:33N 35°01' E 139°42'1313.6
2015-Aug-31 23:33N 35°14' E 139°46'1212.0
2015-Aug-31 22:33N 35°26' E 139°45'5 0.5
2015-Aug-31 12:05N 35°32' E 139°46'0 0.0
2015-Aug-31 06:33N 35°31' E 139°46'4 4.0
2015-Aug-31 05:33N 35°27' E 139°45'1212.2
2015-Aug-31 04:34N 35°32' E 139°59'0 0.1
2015-Aug-31 03:32N 35°32' E 139°59'0 0.0
2015-Aug-31 02:32N 35°32' E 139°59'0 0.0
2015-Aug-31 01:32N 35°32' E 139°59'0 0.0
2015-Aug-31 00:26N 35°32' E 139°59'0 0.0
2015-Aug-30 23:32N 35°32' E 139°59'0 0.0
2015-Aug-30 22:23N 35°32' E 139°59'0 0.0
2015-Aug-30 21:32N 35°32' E 139°59'0 0.0
2015-Aug-30 20:32N 35°32' E 139°59'0 0.0
2015-Aug-30 19:29N 35°32' E 139°59'0 0.0
2015-Aug-30 18:32N 35°32' E 139°59'0 0.0
2015-Aug-30 17:32N 35°32' E 139°59'0 0.0
2015-Aug-30 16:29N 35°32' E 139°59'0 0.0
2015-Aug-30 15:32N 35°32' E 139°59'0 0.3
2015-Aug-30 14:33N 35°31' E 139°59'1312.6
2015-Aug-30 13:33N 35°24' E 139°46'1111.2
2015-Aug-30 12:33N 35°13' E 139°47'53 7.5
2015-Aug-30 05:29N 35°07' E 138°42'48 3.4
2015-Aug-29 15:23N 35°05' E 139°40'1213.7
2015-Aug-29 14:32N 35°15' E 139°46'1111.2
2015-Aug-29 13:33N 35°26' E 139°46'1211.9
2015-Aug-29 12:34N 35°29' E 140°00'0 0.4
2015-Aug-29 11:32N 35°29' E 140°01'0 0.0
2015-Aug-29 10:32N 35°29' E 140°01'0 0.0
2015-Aug-29 09:32N 35°29' E 140°01'0 0.0
2015-Aug-29 08:32N 35°29' E 140°01'0 0.0
2015-Aug-29 07:32N 35°29' E 140°01'0 0.0
2015-Aug-29 06:29N 35°29' E 140°01'0 0.0
2015-Aug-29 05:32N 35°29' E 140°01'1 1.4
2015-Aug-29 04:33N 35°30' E 139°60'2 1.6
2015-Aug-29 03:32N 35°30' E 140°02'0 0.0
2015-Aug-29 02:29N 35°30' E 140°02'1 0.8
2015-Aug-29 01:33N 35°30' E 140°01'0 0.4
2015-Aug-29 00:31N 35°31' E 140°01'0 0.0
2015-Aug-28 23:31N 35°31' E 140°01'2 2.1
2015-Aug-28 22:31N 35°31' E 139°59'0 0.0
2015-Aug-28 21:31N 35°31' E 139°59'0 0.0
2015-Aug-28 20:31N 35°31' E 139°59'0 0.0
2015-Aug-28 19:31N 35°31' E 139°59'0 0.0
2015-Aug-28 18:31N 35°31' E 139°59'0 0.0
2015-Aug-28 17:28N 35°31' E 139°59'0 0.0
2015-Aug-28 16:31N 35°31' E 139°59'0 0.0
2015-Aug-28 15:31N 35°31' E 139°59'0 0.0
2015-Aug-28 14:34N 35°31' E 139°59'0 0.0
2015-Aug-28 13:28N 35°31' E 139°59'0 0.0
2015-Aug-28 12:34N 35°31' E 139°59'0 0.0
2015-Aug-28 11:31N 35°31' E 139°59'0 0.0
2015-Aug-28 10:31N 35°31' E 139°59'0 0.0
2015-Aug-28 09:34N 35°31' E 139°59'0 0.0
2015-Aug-28 08:31N 35°31' E 139°59'0 0.0
2015-Aug-28 07:31N 35°31' E 139°59'7 7.8
2015-Aug-28 06:34N 35°30' E 139°50'3 3.1
2015-Aug-28 05:31N 35°31' E 139°46'0 0.0
2015-Aug-28 04:31N 35°31' E 139°46'0 0.0
2015-Aug-28 03:25N 35°31' E 139°46'0 0.0
2015-Aug-28 02:31N 35°31' E 139°46'0 0.5
2015-Aug-28 01:33N 35°30' E 139°46'4 4.5
2015-Aug-28 00:33N 35°26' E 139°45'1010.2
2015-Aug-27 23:33N 35°16' E 139°46'1212.2
2015-Aug-27 22:33N 35°04' E 139°45'1212.2
2015-Aug-27 21:33N 34°52' E 139°43'1111.2
2015-Aug-27 20:33N 34°50' E 139°56'1212.3
2015-Aug-27 19:33N 34°57' E 140°09'2610.9
2015-Aug-27 17:09N 35°13' E 140°34'813.8
2015-Aug-27 16:32N 35°20' E 140°40'  
Track history (hours):
 
Tides and Currents Weather Stations Pressure Air Temp Water Temp Dewpoint Dewpoint Depression Visibility Wind Speed Wind Dir Waves Ship Positions

Kakushu Maru

Last reported at 2015-Sep-01 07:24 UTC. Time now 2015-Sep-02 23:50 UTC.
Position N 35°44' E 140°58'.

Length 105 m; draft 6.4 m.

Type: Tanker. MMSI: 431101016.

Date/timePositionNaut miles runAvg speedWind from/ knotsBaromVisibWave heightAir tempDewpointWater temp
2015-Sep-01 07:24N 35°44' E 140°58'1413.2
2015-Sep-01 06:19N 35°31' E 140°50'1213.9
2015-Sep-01 05:26N 35°21' E 140°41'1213.9
2015-Sep-01 04:33N 35°12' E 140°32'1514.6
2015-Sep-01 03:32N 35°02' E 140°19'1313.4
2015-Sep-01 02:32N 34°55' E 140°04'1212.8
2015-Sep-01 01:33N 34°51' E 139°50'1212.0
2015-Sep-01 00:33N 35°01' E 139°42'1313.6
2015-Aug-31 23:33N 35°14' E 139°46'1212.0
2015-Aug-31 22:33N 35°26' E 139°45'5 0.5
2015-Aug-31 12:05N 35°32' E 139°46'0 0.0
2015-Aug-31 06:33N 35°31' E 139°46'4 4.0
2015-Aug-31 05:33N 35°27' E 139°45'1212.2
2015-Aug-31 04:34N 35°32' E 139°59'0 0.1
2015-Aug-31 03:32N 35°32' E 139°59'0 0.0
2015-Aug-31 02:32N 35°32' E 139°59'0 0.0
2015-Aug-31 01:32N 35°32' E 139°59'0 0.0
2015-Aug-31 00:26N 35°32' E 139°59'0 0.0
2015-Aug-30 23:32N 35°32' E 139°59'0 0.0
2015-Aug-30 22:23N 35°32' E 139°59'0 0.0
2015-Aug-30 21:32N 35°32' E 139°59'0 0.0
2015-Aug-30 20:32N 35°32' E 139°59'0 0.0
2015-Aug-30 19:29N 35°32' E 139°59'0 0.0
2015-Aug-30 18:32N 35°32' E 139°59'0 0.0
2015-Aug-30 17:32N 35°32' E 139°59'0 0.0
2015-Aug-30 16:29N 35°32' E 139°59'0 0.0
2015-Aug-30 15:32N 35°32' E 139°59'0 0.3
2015-Aug-30 14:33N 35°31' E 139°59'1312.6
2015-Aug-30 13:33N 35°24' E 139°46'1111.2
2015-Aug-30 12:33N 35°13' E 139°47'53 7.5
2015-Aug-30 05:29N 35°07' E 138°42'48 3.4
2015-Aug-29 15:23N 35°05' E 139°40'1213.7
2015-Aug-29 14:32N 35°15' E 139°46'1111.2
2015-Aug-29 13:33N 35°26' E 139°46'1211.9
2015-Aug-29 12:34N 35°29' E 140°00'0 0.4
2015-Aug-29 11:32N 35°29' E 140°01'0 0.0
2015-Aug-29 10:32N 35°29' E 140°01'0 0.0
2015-Aug-29 09:32N 35°29' E 140°01'0 0.0
2015-Aug-29 08:32N 35°29' E 140°01'0 0.0
2015-Aug-29 07:32N 35°29' E 140°01'0 0.0
2015-Aug-29 06:29N 35°29' E 140°01'0 0.0
2015-Aug-29 05:32N 35°29' E 140°01'1 1.4
2015-Aug-29 04:33N 35°30' E 139°60'2 1.6
2015-Aug-29 03:32N 35°30' E 140°02'0 0.0
2015-Aug-29 02:29N 35°30' E 140°02'1 0.8
2015-Aug-29 01:33N 35°30' E 140°01'0 0.4
2015-Aug-29 00:31N 35°31' E 140°01'0 0.0
2015-Aug-28 23:31N 35°31' E 140°01'2 2.1
2015-Aug-28 22:31N 35°31' E 139°59'0 0.0
2015-Aug-28 21:31N 35°31' E 139°59'0 0.0
2015-Aug-28 20:31N 35°31' E 139°59'0 0.0
2015-Aug-28 19:31N 35°31' E 139°59'0 0.0
2015-Aug-28 18:31N 35°31' E 139°59'0 0.0
2015-Aug-28 17:28N 35°31' E 139°59'0 0.0
2015-Aug-28 16:31N 35°31' E 139°59'0 0.0
2015-Aug-28 15:31N 35°31' E 139°59'0 0.0
2015-Aug-28 14:34N 35°31' E 139°59'0 0.0
2015-Aug-28 13:28N 35°31' E 139°59'0 0.0
2015-Aug-28 12:34N 35°31' E 139°59'0 0.0
2015-Aug-28 11:31N 35°31' E 139°59'0 0.0
2015-Aug-28 10:31N 35°31' E 139°59'0 0.0
2015-Aug-28 09:34N 35°31' E 139°59'0 0.0
2015-Aug-28 08:31N 35°31' E 139°59'0 0.0
2015-Aug-28 07:31N 35°31' E 139°59'7 7.8
2015-Aug-28 06:34N 35°30' E 139°50'3 3.1
2015-Aug-28 05:31N 35°31' E 139°46'0 0.0
2015-Aug-28 04:31N 35°31' E 139°46'0 0.0
2015-Aug-28 03:25N 35°31' E 139°46'0 0.0
2015-Aug-28 02:31N 35°31' E 139°46'0 0.5
2015-Aug-28 01:33N 35°30' E 139°46'4 4.5
2015-Aug-28 00:33N 35°26' E 139°45'1010.2
2015-Aug-27 23:33N 35°16' E 139°46'1212.2
2015-Aug-27 22:33N 35°04' E 139°45'1212.2
2015-Aug-27 21:33N 34°52' E 139°43'1111.2
2015-Aug-27 20:33N 34°50' E 139°56'1212.3
2015-Aug-27 19:33N 34°57' E 140°09'2610.9
2015-Aug-27 17:09N 35°13' E 140°34'813.8
2015-Aug-27 16:32N 35°20' E 140°40'  

Dump ship's entire track history